createdAt,value
2023-05-05T00:00:07.200Z,97.03
2023-05-05T00:01:07.082Z,97.13
2023-05-05T00:02:07.098Z,97.03
2023-05-05T00:03:07.134Z,96.92
2023-05-05T00:04:07.054Z,96.92
2023-05-05T00:05:07.040Z,97.13
2023-05-05T00:06:07.015Z,97.03
2023-05-05T00:07:07.022Z,96.62
2023-05-05T00:08:07.003Z,96.27
2023-05-05T00:09:07.000Z,96.17
2023-05-05T00:10:07.242Z,96.17
2023-05-05T00:11:06.972Z,96.17
2023-05-05T00:12:06.982Z,95.96
2023-05-05T00:13:06.992Z,95.86
2023-05-05T00:14:06.937Z,96.06
2023-05-05T00:15:06.922Z,96.47
2023-05-05T00:16:06.956Z,96.06
2023-05-05T00:17:06.941Z,95.96
2023-05-05T00:18:06.903Z,96.01
2023-05-05T00:19:06.894Z,95.90
2023-05-05T00:20:07.090Z,96.21
2023-05-05T00:21:06.866Z,96.51
2023-05-05T00:22:06.836Z,96.51
2023-05-05T00:23:06.840Z,96.62
2023-05-05T00:24:06.854Z,96.62
2023-05-05T00:25:06.809Z,96.83
2023-05-05T00:26:06.807Z,97.24
2023-05-05T00:27:06.792Z,97.24
2023-05-05T00:28:06.770Z,97.44
2023-05-05T00:29:06.781Z,97.44
2023-05-05T00:30:07.135Z,97.74
2023-05-05T00:31:06.783Z,97.44
2023-05-05T00:32:06.725Z,97.03
2023-05-05T00:33:06.795Z,96.83
2023-05-05T00:34:06.860Z,96.62
2023-05-05T00:35:06.707Z,96.31
2023-05-05T00:36:06.861Z,95.70
2023-05-05T00:37:06.683Z,95.35
2023-05-05T00:38:06.675Z,95.35
2023-05-05T00:39:06.835Z,95.35
2023-05-05T00:40:06.983Z,95.39
2023-05-05T00:41:06.692Z,95.90
2023-05-05T00:42:06.636Z,95.50
2023-05-05T00:43:06.626Z,95.50
2023-05-05T00:44:06.631Z,95.39
2023-05-05T00:45:06.655Z,95.80
2023-05-05T00:46:06.608Z,95.90
2023-05-05T00:47:06.598Z,95.60
2023-05-05T00:48:06.596Z,95.60
2023-05-05T00:49:06.581Z,95.80
2023-05-05T00:50:06.767Z,95.60
2023-05-05T00:51:06.531Z,95.50
2023-05-05T00:52:06.530Z,95.45
2023-05-05T00:53:06.582Z,95.76
2023-05-05T00:54:06.486Z,95.56
2023-05-05T00:55:06.525Z,95.35
2023-05-05T00:56:06.498Z,95.45
2023-05-05T00:57:06.466Z,95.56
2023-05-05T00:58:06.451Z,95.25
2023-05-05T00:59:06.454Z,95.04
2023-05-05T01:00:06.686Z,94.70
2023-05-05T01:01:06.431Z,94.79
2023-05-05T01:02:06.426Z,94.49
2023-05-05T01:03:06.535Z,94.49
2023-05-05T01:04:06.576Z,94.70
2023-05-05T01:05:06.412Z,94.49
2023-05-05T01:06:06.378Z,95.10
2023-05-05T01:07:06.360Z,94.79
2023-05-05T01:08:06.341Z,94.79
2023-05-05T01:09:06.387Z,94.90
2023-05-05T01:10:18.094Z,94.90
2023-05-05T01:11:07.434Z,94.90
2023-05-05T01:12:06.353Z,94.79
2023-05-05T01:13:06.345Z,94.38
2023-05-05T01:14:06.260Z,94.18
2023-05-05T01:15:06.274Z,94.18
2023-05-05T01:16:06.300Z,94.08
2023-05-05T01:17:06.262Z,93.88
2023-05-05T01:18:06.249Z,93.67
2023-05-05T01:19:06.229Z,93.67
2023-05-05T01:20:06.378Z,93.88
2023-05-05T01:21:06.209Z,93.67
2023-05-05T01:22:06.173Z,93.67
2023-05-05T01:23:06.181Z,93.67
2023-05-05T01:24:06.159Z,93.77
2023-05-05T01:25:06.178Z,94.18
2023-05-05T01:26:06.138Z,94.08
2023-05-05T01:27:06.144Z,94.08
2023-05-05T01:28:06.120Z,94.18
2023-05-05T01:29:06.131Z,94.65
2023-05-05T01:30:06.253Z,94.65
2023-05-05T01:31:06.096Z,94.34
2023-05-05T01:32:06.071Z,94.95
2023-05-05T01:33:06.072Z,94.55
2023-05-05T01:34:06.049Z,94.75
2023-05-05T01:35:06.054Z,94.75
2023-05-05T01:36:06.033Z,94.45
2023-05-05T01:37:06.045Z,94.95
2023-05-05T01:38:06.014Z,94.95
2023-05-05T01:39:06.002Z,94.75
2023-05-05T01:40:06.229Z,95.06
2023-05-05T01:41:05.983Z,95.36
2023-05-05T01:42:06.026Z,95.16
2023-05-05T01:43:05.975Z,95.16
2023-05-05T01:44:09.406Z,95.36
2023-05-05T01:45:05.931Z,95.51
2023-05-05T01:46:05.930Z,95.61
2023-05-05T01:47:05.924Z,95.92
2023-05-05T01:48:05.947Z,95.81
2023-05-05T01:49:05.898Z,95.61
2023-05-05T01:50:06.235Z,95.61
2023-05-05T01:51:05.877Z,95.51
2023-05-05T01:52:05.854Z,95.31
2023-05-05T01:53:05.849Z,95.00
2023-05-05T01:54:05.828Z,94.70
2023-05-05T01:55:05.825Z,94.79
2023-05-05T01:56:05.816Z,94.79
2023-05-05T01:57:05.806Z,94.70
2023-05-05T01:58:05.780Z,94.08
2023-05-05T01:59:05.779Z,93.57
2023-05-05T02:00:05.924Z,93.43
2023-05-05T02:01:05.791Z,93.32
2023-05-05T02:02:05.766Z,93.73
2023-05-05T02:03:05.794Z,93.63
2023-05-05T02:04:05.739Z,93.47
2023-05-05T02:05:05.712Z,93.67
2023-05-05T02:06:05.699Z,93.67
2023-05-05T02:07:05.688Z,93.77
2023-05-05T02:08:05.666Z,93.67
2023-05-05T02:09:05.668Z,93.57
2023-05-05T02:10:05.795Z,93.67
2023-05-05T02:11:05.651Z,93.67
2023-05-05T02:12:05.634Z,93.88
2023-05-05T02:13:05.737Z,93.67
2023-05-05T02:14:05.618Z,93.92
2023-05-05T02:15:05.629Z,94.02
2023-05-05T02:16:05.619Z,94.12
2023-05-05T02:17:05.596Z,94.12
2023-05-05T02:18:05.629Z,94.12
2023-05-05T02:19:05.575Z,94.43
2023-05-05T02:20:05.623Z,94.53
2023-05-05T02:21:05.538Z,95.25
2023-05-05T02:22:05.532Z,95.56
2023-05-05T02:23:05.527Z,95.04
2023-05-05T02:24:05.519Z,94.74
2023-05-05T02:25:05.519Z,94.94
2023-05-05T02:26:05.484Z,94.84
2023-05-05T02:27:05.494Z,94.94
2023-05-05T02:28:05.473Z,94.94
2023-05-05T02:29:05.468Z,94.68
2023-05-05T02:30:05.544Z,94.43
2023-05-05T02:31:05.460Z,94.37
2023-05-05T02:32:05.423Z,94.27
2023-05-05T02:33:05.552Z,94.27
2023-05-05T02:34:05.395Z,94.48
2023-05-05T02:35:05.404Z,94.48
2023-05-05T02:36:05.374Z,94.89
2023-05-05T02:37:05.399Z,94.98
2023-05-05T02:38:05.393Z,95.39
2023-05-05T02:39:05.387Z,95.80
2023-05-05T02:40:05.455Z,95.75
2023-05-05T02:41:05.335Z,95.95
2023-05-05T02:42:05.309Z,95.64
2023-05-05T02:43:05.371Z,95.64
2023-05-05T02:44:05.310Z,95.44
2023-05-05T02:45:06.092Z,95.50
2023-05-05T02:46:05.430Z,95.60
2023-05-05T02:47:05.259Z,95.60
2023-05-05T02:48:05.275Z,95.64
2023-05-05T02:49:05.260Z,95.95
2023-05-05T02:50:05.354Z,95.64
2023-05-05T02:51:05.214Z,95.34
2023-05-05T02:52:05.209Z,95.23
2023-05-05T02:53:05.201Z,95.34
2023-05-05T02:54:05.181Z,95.34
2023-05-05T02:55:05.191Z,95.13
2023-05-05T02:56:05.196Z,95.23
2023-05-05T02:57:05.163Z,95.23
2023-05-05T02:58:05.146Z,95.44
2023-05-05T02:59:05.128Z,95.34
2023-05-05T03:00:05.160Z,95.13
2023-05-05T03:01:05.139Z,95.54
2023-05-05T03:02:05.092Z,95.85
2023-05-05T03:03:05.200Z,96.05
2023-05-05T03:04:05.077Z,95.95
2023-05-05T03:05:05.323Z,96.15
2023-05-05T03:06:05.043Z,96.26
2023-05-05T03:07:05.053Z,96.36
2023-05-05T03:08:05.023Z,96.41
2023-05-05T03:09:05.024Z,96.30
2023-05-05T03:10:05.158Z,96.61
2023-05-05T03:11:04.993Z,96.92
2023-05-05T03:12:05.002Z,97.12
2023-05-05T03:13:05.014Z,96.92
2023-05-05T03:14:04.961Z,96.71
2023-05-05T03:15:04.948Z,96.30
2023-05-05T03:16:04.971Z,96.14
2023-05-05T03:17:04.936Z,96.20
2023-05-05T03:18:04.971Z,96.41
2023-05-05T03:19:04.902Z,96.51
2023-05-05T03:20:04.989Z,96.81
2023-05-05T03:21:04.878Z,96.75
2023-05-05T03:22:04.875Z,96.96
2023-05-05T03:23:04.864Z,97.27
2023-05-05T03:24:04.864Z,97.16
2023-05-05T03:25:04.836Z,96.96
2023-05-05T03:26:04.847Z,96.86
2023-05-05T03:27:04.812Z,97.06
2023-05-05T03:28:04.807Z,96.86
2023-05-05T03:29:04.793Z,96.86
2023-05-05T03:30:04.883Z,96.96
2023-05-05T03:31:04.774Z,97.06
2023-05-05T03:32:04.895Z,97.16
2023-05-05T03:33:04.779Z,97.11
2023-05-05T03:34:04.740Z,97.21
2023-05-05T03:35:04.716Z,97.72
2023-05-05T03:36:04.754Z,97.92
2023-05-05T03:37:04.710Z,97.92
2023-05-05T03:38:04.704Z,98.03
2023-05-05T03:39:04.690Z,97.82
2023-05-05T03:40:04.760Z,97.62
2023-05-05T03:41:04.652Z,97.62
2023-05-05T03:42:04.662Z,97.62
2023-05-05T03:43:04.632Z,97.52
2023-05-05T03:44:04.634Z,97.56
2023-05-05T03:45:04.637Z,97.46
2023-05-05T03:46:04.623Z,97.46
2023-05-05T03:47:04.591Z,97.46
2023-05-05T03:48:04.630Z,97.56
2023-05-05T03:49:04.571Z,97.46
2023-05-05T03:50:04.585Z,97.66
2023-05-05T03:51:04.572Z,97.77
2023-05-05T03:52:04.544Z,97.77
2023-05-05T03:53:04.527Z,97.87
2023-05-05T03:54:04.527Z,97.97
2023-05-05T03:55:04.516Z,98.18
2023-05-05T03:56:04.508Z,98.49
2023-05-05T03:57:04.508Z,98.49
2023-05-05T03:58:04.482Z,98.49
2023-05-05T03:59:04.516Z,98.49
2023-05-05T04:00:04.476Z,98.28
2023-05-05T04:01:04.434Z,98.28
2023-05-05T04:02:04.468Z,98.28
2023-05-05T04:03:04.486Z,97.97
2023-05-05T04:04:04.435Z,97.82
2023-05-05T04:05:04.404Z,97.92
2023-05-05T04:06:04.400Z,98.03
2023-05-05T04:07:04.383Z,98.03
2023-05-05T04:08:04.374Z,97.92
2023-05-05T04:09:05.182Z,98.03
2023-05-05T04:10:04.348Z,98.03
2023-05-05T04:11:04.336Z,97.82
2023-05-05T04:12:04.394Z,97.72
2023-05-05T04:13:04.403Z,97.72
2023-05-05T04:14:04.308Z,97.92
2023-05-05T04:15:04.286Z,97.78
2023-05-05T04:16:04.325Z,97.67
2023-05-05T04:17:04.271Z,97.57
2023-05-05T04:18:04.343Z,97.57
2023-05-05T04:19:04.256Z,97.57
2023-05-05T04:20:04.250Z,97.47
2023-05-05T04:21:04.229Z,97.27
2023-05-05T04:22:04.250Z,97.16
2023-05-05T04:23:04.226Z,97.16
2023-05-05T04:24:04.201Z,96.96
2023-05-05T04:25:04.203Z,96.75
2023-05-05T04:26:04.176Z,96.75
2023-05-05T04:27:04.156Z,96.66
2023-05-05T04:28:04.161Z,96.55
2023-05-05T04:29:04.138Z,96.55
2023-05-05T04:30:04.139Z,96.45
2023-05-05T04:31:04.135Z,96.61
2023-05-05T04:32:04.120Z,96.30
2023-05-05T04:33:04.107Z,96.20
2023-05-05T04:34:04.097Z,96.10
2023-05-05T04:35:04.080Z,95.89
2023-05-05T04:36:04.070Z,95.89
2023-05-05T04:37:04.049Z,96.00
2023-05-05T04:38:04.049Z,96.10
2023-05-05T04:39:04.852Z,96.30
2023-05-05T04:40:04.019Z,97.22
2023-05-05T04:41:04.010Z,97.02
2023-05-05T04:42:04.002Z,96.61
2023-05-05T04:43:03.978Z,97.02
2023-05-05T04:44:03.977Z,96.81
2023-05-05T04:45:03.969Z,96.81
2023-05-05T04:46:03.993Z,96.81
2023-05-05T04:47:03.935Z,96.51
2023-05-05T04:48:04.030Z,96.51
2023-05-05T04:49:03.922Z,96.61
2023-05-05T04:50:04.005Z,96.51
2023-05-05T04:51:03.898Z,96.71
2023-05-05T04:52:03.894Z,97.33
2023-05-05T04:53:03.869Z,97.33
2023-05-05T04:54:03.873Z,96.92
2023-05-05T04:55:03.852Z,96.61
2023-05-05T04:56:03.880Z,96.46
2023-05-05T04:57:03.834Z,96.46
2023-05-05T04:58:03.838Z,96.36
2023-05-05T04:59:03.827Z,96.05
2023-05-05T05:00:03.802Z,95.70
2023-05-05T05:01:03.812Z,95.50
2023-05-05T05:02:03.830Z,95.09
2023-05-05T05:03:03.825Z,94.89
2023-05-05T05:04:03.791Z,94.74
2023-05-05T05:05:03.744Z,94.74
2023-05-05T05:06:03.743Z,94.64
2023-05-05T05:07:03.720Z,94.84
2023-05-05T05:08:03.748Z,94.49
2023-05-05T05:09:03.690Z,94.18
2023-05-05T05:10:03.720Z,94.08
2023-05-05T05:11:03.670Z,94.70
2023-05-05T05:12:03.670Z,94.70
2023-05-05T05:13:03.741Z,94.65
2023-05-05T05:14:03.644Z,94.55
2023-05-05T05:15:03.649Z,94.65
2023-05-05T05:16:03.720Z,94.14
2023-05-05T05:17:03.619Z,94.14
2023-05-05T05:18:03.693Z,94.24
2023-05-05T05:19:03.656Z,94.34
2023-05-05T05:20:03.655Z,94.40
2023-05-05T05:21:03.621Z,93.99
2023-05-05T05:22:03.668Z,93.79
2023-05-05T05:23:03.543Z,93.33
2023-05-05T05:24:03.544Z,93.03
2023-05-05T05:25:03.521Z,92.83
2023-05-05T05:26:03.517Z,92.83
2023-05-05T05:27:03.513Z,92.83
2023-05-05T05:28:10.124Z,92.72
2023-05-05T05:29:04.479Z,93.13
2023-05-05T05:30:03.484Z,93.54
2023-05-05T05:31:03.475Z,93.29
2023-05-05T05:32:03.509Z,93.60
2023-05-05T05:33:03.452Z,93.90
2023-05-05T05:34:03.439Z,93.80
2023-05-05T05:35:03.430Z,93.90
2023-05-05T05:36:03.417Z,93.50
2023-05-05T05:37:03.419Z,93.50
2023-05-05T05:38:03.391Z,93.15
2023-05-05T05:39:03.357Z,92.64
2023-05-05T05:40:03.365Z,92.03
2023-05-05T05:41:03.343Z,91.38
2023-05-05T05:42:03.342Z,91.07
2023-05-05T05:43:03.324Z,91.07
2023-05-05T05:44:03.318Z,91.58
2023-05-05T05:45:03.312Z,91.68
2023-05-05T05:46:03.351Z,91.58
2023-05-05T05:47:03.281Z,91.68
2023-05-05T05:48:03.338Z,91.78
2023-05-05T05:49:03.270Z,92.80
2023-05-05T05:50:03.278Z,92.35
2023-05-05T05:51:03.248Z,91.64
2023-05-05T05:52:03.233Z,91.33
2023-05-05T05:53:03.235Z,90.52
2023-05-05T05:54:03.222Z,90.83
2023-05-05T05:55:03.192Z,92.86
2023-05-05T05:56:03.191Z,93.16
2023-05-05T05:57:03.171Z,92.96
2023-05-05T05:58:03.172Z,91.19
2023-05-05T05:59:03.150Z,90.48
2023-05-05T06:00:03.158Z,89.97
2023-05-05T06:01:03.132Z,89.56
2023-05-05T06:02:03.296Z,89.52
2023-05-05T06:03:03.276Z,89.11
2023-05-05T06:04:03.229Z,89.17
2023-05-05T06:05:03.081Z,89.68
2023-05-05T06:06:03.087Z,87.92
2023-05-05T06:07:03.062Z,84.66
2023-05-05T06:08:03.063Z,83.91
2023-05-05T06:09:03.048Z,84.58
2023-05-05T06:10:11.254Z,84.78
2023-05-05T06:11:04.019Z,84.04
2023-05-05T06:12:03.031Z,83.83
2023-05-05T06:13:03.130Z,84.10
2023-05-05T06:14:03.001Z,82.34
2023-05-05T06:15:02.995Z,81.73
2023-05-05T06:16:03.024Z,79.67
2023-05-05T06:17:02.957Z,78.66
2023-05-05T06:18:03.052Z,78.15
2023-05-05T06:19:02.932Z,75.07
2023-05-05T06:20:02.926Z,74.57
2023-05-05T06:21:02.921Z,73.22
2023-05-05T06:22:02.912Z,73.69
2023-05-05T06:23:03.740Z,72.48
2023-05-05T06:24:02.893Z,73.90
2023-05-05T06:25:02.869Z,72.95
2023-05-05T06:26:02.866Z,72.64
2023-05-05T06:27:02.863Z,71.60
2023-05-05T06:28:02.852Z,71.70
2023-05-05T06:29:02.827Z,71.70
2023-05-05T06:30:02.864Z,71.60
2023-05-05T06:31:02.824Z,72.48
2023-05-05T06:32:02.821Z,70.96
2023-05-05T06:33:02.822Z,71.23
2023-05-05T06:34:02.793Z,71.44
2023-05-05T06:35:02.760Z,70.12
2023-05-05T06:36:02.762Z,70.12
2023-05-05T06:37:02.744Z,70.62
2023-05-05T06:38:02.743Z,70.32
2023-05-05T06:39:02.731Z,69.52
2023-05-05T06:40:02.719Z,69.31
2023-05-05T06:41:02.743Z,69.62
2023-05-05T06:42:02.702Z,69.21
2023-05-05T06:43:02.668Z,69.89
2023-05-05T06:44:02.680Z,70.09
2023-05-05T06:45:02.795Z,70.59
2023-05-05T06:46:02.652Z,71.80
2023-05-05T06:47:02.653Z,71.17
2023-05-05T06:48:02.738Z,70.15
2023-05-05T06:49:02.621Z,69.25
2023-05-05T06:50:02.633Z,70.06
2023-05-05T06:51:02.921Z,69.35
2023-05-05T06:52:02.588Z,69.65
2023-05-05T06:53:02.571Z,69.42
2023-05-05T06:54:02.936Z,69.21
2023-05-05T06:55:02.578Z,67.71
2023-05-05T06:56:02.553Z,67.71
2023-05-05T06:57:02.532Z,68.04
2023-05-05T06:58:02.527Z,67.94
2023-05-05T06:59:02.510Z,67.74
2023-05-05T07:00:02.519Z,69.01
2023-05-05T07:01:02.529Z,71.84
2023-05-05T07:02:02.474Z,71.64
2023-05-05T07:03:02.500Z,71.33
2023-05-05T07:04:02.506Z,70.15
2023-05-05T07:05:02.464Z,70.56
2023-05-05T07:06:02.433Z,71.26
2023-05-05T07:07:02.429Z,70.26
2023-05-05T07:08:02.441Z,71.44
2023-05-05T07:09:02.401Z,71.30
2023-05-05T07:10:02.397Z,69.59
2023-05-05T07:11:02.386Z,67.88
2023-05-05T07:12:02.415Z,68.58
2023-05-05T07:13:02.385Z,67.74
2023-05-05T07:14:02.352Z,68.24
2023-05-05T07:15:09.569Z,69.35
2023-05-05T07:16:03.519Z,68.65
2023-05-05T07:17:02.590Z,68.01
2023-05-05T07:18:02.406Z,67.51
2023-05-05T07:19:02.288Z,68.28
2023-05-05T07:20:02.320Z,68.18
2023-05-05T07:21:02.279Z,68.28
2023-05-05T07:22:02.339Z,67.04
2023-05-05T07:23:02.257Z,67.85
2023-05-05T07:24:02.250Z,66.44
2023-05-05T07:25:02.255Z,67.74
2023-05-05T07:26:02.240Z,66.74
2023-05-05T07:27:02.217Z,68.95
2023-05-05T07:28:02.199Z,67.44
2023-05-05T07:29:02.202Z,68.12
2023-05-05T07:30:04.043Z,68.38
2023-05-05T07:31:02.177Z,67.55
2023-05-05T07:32:02.203Z,64.64
2023-05-05T07:33:02.170Z,65.77
2023-05-05T07:34:02.174Z,66.55
2023-05-05T07:35:02.157Z,64.94
2023-05-05T07:36:02.138Z,64.21
2023-05-05T07:37:02.130Z,64.78
2023-05-05T07:38:02.087Z,64.88
2023-05-05T07:39:02.112Z,63.64
2023-05-05T07:40:02.075Z,62.04
2023-05-05T07:41:02.060Z,64.45
2023-05-05T07:42:02.038Z,64.34
2023-05-05T07:43:02.049Z,65.28
2023-05-05T07:44:02.035Z,65.71
2023-05-05T07:45:02.030Z,67.52
2023-05-05T07:46:02.051Z,67.79
2023-05-05T07:47:01.988Z,67.08
2023-05-05T07:48:02.050Z,64.28
2023-05-05T07:49:01.974Z,62.87
2023-05-05T07:50:02.277Z,63.47
2023-05-05T07:51:01.980Z,63.28
2023-05-05T07:52:01.947Z,64.61
2023-05-05T07:53:10.541Z,64.91
2023-05-05T07:54:02.908Z,63.40
2023-05-05T07:55:01.907Z,64.21
2023-05-05T07:56:01.906Z,65.51
2023-05-05T07:57:01.948Z,64.91
2023-05-05T07:58:01.945Z,62.97
2023-05-05T07:59:01.861Z,64.68
2023-05-05T08:00:01.835Z,63.07
2023-05-05T08:01:01.846Z,63.14
2023-05-05T08:02:01.820Z,64.15
2023-05-05T08:03:01.906Z,62.41
2023-05-05T08:04:01.889Z,61.61
2023-05-05T08:05:01.813Z,61.61
2023-05-05T08:06:02.211Z,63.28
2023-05-05T08:07:01.783Z,63.25
2023-05-05T08:08:01.757Z,62.25
2023-05-05T08:09:01.767Z,62.45
2023-05-05T08:10:01.758Z,63.62
2023-05-05T08:11:02.182Z,61.62
2023-05-05T08:12:01.713Z,64.89
2023-05-05T08:13:01.768Z,59.36
2023-05-05T08:14:01.695Z,59.17
2023-05-05T08:15:01.752Z,60.03
2023-05-05T08:16:01.704Z,58.54
2023-05-05T08:17:01.677Z,59.44
2023-05-05T08:18:01.691Z,60.03
2023-05-05T08:19:01.650Z,60.14
2023-05-05T08:20:01.640Z,59.06
2023-05-05T08:21:01.654Z,58.59
2023-05-05T08:22:01.752Z,58.49
2023-05-05T08:23:01.632Z,58.09
2023-05-05T08:24:01.586Z,57.26
2023-05-05T08:25:01.595Z,58.64
2023-05-05T08:26:01.566Z,59.23
2023-05-05T08:27:01.656Z,60.44
2023-05-05T08:28:01.562Z,62.10
2023-05-05T08:29:01.560Z,59.04
2023-05-05T08:30:01.530Z,60.66
2023-05-05T08:31:01.580Z,59.86
2023-05-05T08:32:01.546Z,59.44
2023-05-05T08:33:01.609Z,58.14
2023-05-05T08:34:01.487Z,57.67
2023-05-05T08:35:01.497Z,58.76
2023-05-05T08:36:01.458Z,57.87
2023-05-05T08:37:01.469Z,60.77
2023-05-05T08:38:01.445Z,60.44
2023-05-05T08:39:01.460Z,58.91
2023-05-05T08:40:01.416Z,59.91
2023-05-05T08:41:01.421Z,58.04
2023-05-05T08:42:01.392Z,59.74
2023-05-05T08:43:01.410Z,59.34
2023-05-05T08:44:01.373Z,58.94
2023-05-05T08:45:01.370Z,58.44
2023-05-05T08:46:01.376Z,58.71
2023-05-05T08:47:01.506Z,58.24
2023-05-05T08:48:01.419Z,57.81
2023-05-05T08:49:01.347Z,56.48
2023-05-05T08:50:01.330Z,56.71
2023-05-05T08:51:03.264Z,57.51
2023-05-05T08:52:01.285Z,58.88
2023-05-05T08:53:01.322Z,56.36
2023-05-05T08:54:01.281Z,55.79
2023-05-05T08:55:01.282Z,57.81
2023-05-05T08:56:01.252Z,57.88
2023-05-05T08:57:01.254Z,56.29
2023-05-05T08:58:01.244Z,58.38
2023-05-05T08:59:01.245Z,57.35
2023-05-05T09:00:01.205Z,59.42
2023-05-05T09:01:01.263Z,57.50
2023-05-05T09:02:01.217Z,57.67
2023-05-05T09:03:01.553Z,55.18
2023-05-05T09:04:01.149Z,55.46
2023-05-05T09:05:01.303Z,54.68
2023-05-05T09:06:01.143Z,56.08
2023-05-05T09:07:01.149Z,55.38
2023-05-05T09:08:01.126Z,54.79
2023-05-05T09:09:01.125Z,55.68
2023-05-05T09:10:01.093Z,54.81
2023-05-05T09:11:01.111Z,57.10
2023-05-05T09:12:01.069Z,57.00
2023-05-05T09:13:01.104Z,56.48
2023-05-05T09:14:01.050Z,55.55
2023-05-05T09:15:01.053Z,55.38
2023-05-05T09:16:01.025Z,56.45
2023-05-05T09:17:01.093Z,53.76
2023-05-05T09:18:01.073Z,54.75
2023-05-05T09:19:01.019Z,56.55
2023-05-05T09:20:01.173Z,56.23
2023-05-05T09:21:00.985Z,57.12
2023-05-05T09:22:00.966Z,53.39
2023-05-05T09:23:00.968Z,54.94
2023-05-05T09:24:07.743Z,56.59
2023-05-05T09:25:01.938Z,56.59
2023-05-05T09:26:00.927Z,55.49
2023-05-05T09:27:00.934Z,56.59
2023-05-05T09:28:00.898Z,59.65
2023-05-05T09:29:00.900Z,60.72
2023-05-05T09:30:00.882Z,56.43
2023-05-05T09:31:00.882Z,55.51
2023-05-05T09:32:00.850Z,55.71
2023-05-05T09:33:00.894Z,55.78
2023-05-05T09:34:00.838Z,54.41
2023-05-05T09:35:00.842Z,56.51
2023-05-05T09:36:00.853Z,54.58
2023-05-05T09:37:00.817Z,58.07
2023-05-05T09:38:00.799Z,54.56
2023-05-05T09:39:00.790Z,53.76
2023-05-05T09:40:00.776Z,54.86
2023-05-05T09:41:00.776Z,55.26
2023-05-05T09:42:00.874Z,55.68
2023-05-05T09:43:00.757Z,55.18
2023-05-05T09:44:00.731Z,54.96
2023-05-05T09:45:00.731Z,55.55
2023-05-05T09:46:00.719Z,55.55
2023-05-05T09:47:00.718Z,54.98
2023-05-05T09:48:00.987Z,53.96
2023-05-05T09:49:00.691Z,56.65
2023-05-05T09:50:00.695Z,55.16
2023-05-05T09:51:00.678Z,55.53
2023-05-05T09:52:00.736Z,54.50
2023-05-05T09:53:00.716Z,55.53
2023-05-05T09:54:00.626Z,54.13
2023-05-05T09:55:00.623Z,54.21
2023-05-05T09:56:00.614Z,56.32
2023-05-05T09:57:00.612Z,55.46
2023-05-05T09:58:00.606Z,56.02
2023-05-05T09:59:00.576Z,54.96
2023-05-05T10:00:00.584Z,54.56
2023-05-05T10:01:00.557Z,54.56
2023-05-05T10:02:00.631Z,55.82
2023-05-05T10:03:00.548Z,58.88
2023-05-05T10:04:00.504Z,53.94
2023-05-05T10:05:02.288Z,55.35
2023-05-05T10:06:00.492Z,56.75
2023-05-05T10:07:00.492Z,58.31
2023-05-05T10:08:00.463Z,54.11
2023-05-05T10:09:00.471Z,54.41
2023-05-05T10:10:00.446Z,56.30
2023-05-05T10:11:00.478Z,53.83
2023-05-05T10:12:00.428Z,56.12
2023-05-05T10:13:00.460Z,56.20
2023-05-05T10:14:00.402Z,57.36
2023-05-05T10:15:00.398Z,55.94
2023-05-05T10:16:00.427Z,53.78
2023-05-05T10:17:00.384Z,53.19
2023-05-05T10:18:07.551Z,53.91
2023-05-05T10:19:01.363Z,54.41
2023-05-05T10:20:00.384Z,53.51
2023-05-05T10:21:00.334Z,54.26
2023-05-05T10:22:00.323Z,55.18
2023-05-05T10:23:00.315Z,55.55
2023-05-05T10:24:00.309Z,55.08
2023-05-05T10:25:00.296Z,56.15
2023-05-05T10:26:00.283Z,56.32
2023-05-05T10:27:00.280Z,54.03
2023-05-05T10:28:00.252Z,54.33
2023-05-05T10:29:00.252Z,54.90
2023-05-05T10:30:00.242Z,54.50
2023-05-05T10:31:00.243Z,53.31
2023-05-05T10:32:00.291Z,54.96
2023-05-05T10:33:17.381Z,54.16
2023-05-05T10:34:01.255Z,54.75
2023-05-05T10:35:00.187Z,54.53
2023-05-05T10:36:00.170Z,55.90
2023-05-05T10:37:00.209Z,56.99
2023-05-05T10:38:00.160Z,54.78
2023-05-05T10:39:00.176Z,54.06
2023-05-05T10:40:00.181Z,54.43
2023-05-05T10:41:00.181Z,52.24
2023-05-05T10:42:00.146Z,53.44
2023-05-05T10:43:00.139Z,53.63
2023-05-05T10:44:02.771Z,53.16
2023-05-05T10:45:00.149Z,52.64
2023-05-05T10:46:00.123Z,53.44
2023-05-05T10:47:00.087Z,54.00
2023-05-05T10:48:00.133Z,54.87
2023-05-05T10:49:00.225Z,53.45
2023-05-05T10:50:00.037Z,51.89
2023-05-05T10:51:00.031Z,53.45
2023-05-05T10:52:00.010Z,52.59
2023-05-05T10:52:59.999Z,51.67
2023-05-05T10:53:59.991Z,55.29
2023-05-05T10:54:59.978Z,55.10
2023-05-05T10:55:59.979Z,53.70
2023-05-05T10:56:59.957Z,55.36
2023-05-05T10:57:59.950Z,55.27
2023-05-05T10:59:00.837Z,52.39
2023-05-05T10:59:59.942Z,54.40
2023-05-05T11:00:59.967Z,53.04
2023-05-05T11:01:59.906Z,53.93
2023-05-05T11:02:59.998Z,53.56
2023-05-05T11:03:59.932Z,55.22
2023-05-05T11:04:59.876Z,54.63
2023-05-05T11:05:59.861Z,54.50
2023-05-05T11:06:59.859Z,52.89
2023-05-05T11:07:59.841Z,50.68
2023-05-05T11:08:59.839Z,51.20
2023-05-05T11:09:59.818Z,52.76
2023-05-05T11:10:59.810Z,54.32
2023-05-05T11:11:59.796Z,52.54
2023-05-05T11:12:59.819Z,52.44
2023-05-05T11:13:59.773Z,49.88
2023-05-05T11:14:59.769Z,51.37
2023-05-05T11:15:59.749Z,52.66
2023-05-05T11:16:59.799Z,51.37
2023-05-05T11:17:59.794Z,52.07
2023-05-05T11:18:59.738Z,51.84
2023-05-05T11:19:59.721Z,51.05
2023-05-05T11:20:59.736Z,52.47
2023-05-05T11:21:59.702Z,51.15
2023-05-05T11:22:59.711Z,54.02
2023-05-05T11:23:59.676Z,52.61
2023-05-05T11:24:59.665Z,50.56
2023-05-05T11:25:59.654Z,52.73
2023-05-05T11:26:59.648Z,52.81
2023-05-05T11:27:59.632Z,50.63
2023-05-05T11:28:59.650Z,51.03
2023-05-05T11:29:59.603Z,52.19
2023-05-05T11:30:59.934Z,51.00
2023-05-05T11:31:59.592Z,50.81
2023-05-05T11:32:59.603Z,50.81
2023-05-05T11:33:59.570Z,51.23
2023-05-05T11:34:59.567Z,50.13
2023-05-05T11:35:59.540Z,50.76
2023-05-05T11:36:59.542Z,52.79
2023-05-05T11:37:59.518Z,52.34
2023-05-05T11:38:59.539Z,52.96
2023-05-05T11:39:59.506Z,53.66
2023-05-05T11:40:59.499Z,54.08
2023-05-05T11:41:59.483Z,53.93
2023-05-05T11:42:59.473Z,52.84
2023-05-05T11:43:59.479Z,53.93
2023-05-05T11:44:59.455Z,56.09
2023-05-05T11:45:59.463Z,53.01
2023-05-05T11:46:59.464Z,52.14
2023-05-05T11:47:59.457Z,53.53
2023-05-05T11:48:59.409Z,52.91
2023-05-05T11:49:59.406Z,52.02
2023-05-05T11:50:59.376Z,52.09
2023-05-05T11:51:59.397Z,52.26
2023-05-05T11:52:59.367Z,52.51
2023-05-05T11:53:59.433Z,52.42
2023-05-05T11:54:59.345Z,52.22
2023-05-05T11:55:59.340Z,53.83
2023-05-05T11:56:59.555Z,53.41
2023-05-05T11:57:59.336Z,52.02
2023-05-05T11:58:59.295Z,52.51
2023-05-05T11:59:59.308Z,56.09
2023-05-05T12:00:59.281Z,52.49
2023-05-05T12:01:59.289Z,52.73
2023-05-05T12:02:59.297Z,52.17
2023-05-05T12:03:59.404Z,51.65
2023-05-05T12:04:59.272Z,49.96
2023-05-05T12:05:59.242Z,50.36
2023-05-05T12:06:59.237Z,50.95
2023-05-05T12:07:59.221Z,51.03
2023-05-05T12:08:59.195Z,50.43
2023-05-05T12:09:59.196Z,54.39
2023-05-05T12:10:59.178Z,48.90
2023-05-05T12:11:59.178Z,50.95
2023-05-05T12:12:59.174Z,54.60
2023-05-05T12:13:59.157Z,53.26
2023-05-05T12:14:59.137Z,51.37
2023-05-05T12:15:59.171Z,51.67
2023-05-05T12:16:59.104Z,52.41
2023-05-05T12:18:02.129Z,49.84
2023-05-05T12:18:59.094Z,49.71
2023-05-05T12:19:59.096Z,51.77
2023-05-05T12:20:59.071Z,50.16
2023-05-05T12:21:59.069Z,48.68
2023-05-05T12:22:59.045Z,48.36
2023-05-05T12:23:59.049Z,48.14
2023-05-05T12:24:59.028Z,49.94
2023-05-05T12:25:59.027Z,46.80
2023-05-05T12:26:59.018Z,48.15
2023-05-05T12:27:59.006Z,49.24
2023-05-05T12:28:59.009Z,49.64
2023-05-05T12:29:58.982Z,49.15
2023-05-05T12:30:59.093Z,49.64
2023-05-05T12:31:58.999Z,50.60
2023-05-05T12:32:58.982Z,50.21
2023-05-05T12:33:58.948Z,50.98
2023-05-05T12:34:58.925Z,49.77
2023-05-05T12:35:58.943Z,49.47
2023-05-05T12:36:58.920Z,47.99
2023-05-05T12:37:58.907Z,48.67
2023-05-05T12:38:58.887Z,51.05
2023-05-05T12:39:58.893Z,51.32
2023-05-05T12:40:58.861Z,50.81
2023-05-05T12:41:58.867Z,50.51
2023-05-05T12:42:58.893Z,50.68
2023-05-05T12:43:58.847Z,51.62
2023-05-05T12:44:58.817Z,50.34
2023-05-05T12:45:58.936Z,50.09
2023-05-05T12:46:58.805Z,50.48
2023-05-05T12:47:58.829Z,51.03
2023-05-05T12:48:58.777Z,52.71
2023-05-05T12:49:58.782Z,49.42
2023-05-05T12:50:58.765Z,51.07
2023-05-05T12:51:58.756Z,47.91